Portada
METAR-TAF:

METAR-TAF

Aeroports :

Salluit, Quebec, Canadà

latitud: 62-11N, longitud: 075-40W, altitud: 226 m

Observació

L'informe es va fer fa 6 hores i 31 minuts, a les 21:00 UTC
Vent 6 kt del Sud-Oest
Temperatura -6°C
Humitat 86%
Pressió 1008 hPa
Visibilitat: 24.1 km
Cel ennuvolat a una alçada de 800 ft
Cel ennuvolat a una alçada de 1100 ft
neu

METAR: CYZG 262100Z 23006KT 15SM -SN BKN008 BKN011 M06/M08 A2977 RMK SF5SC2 LAST STFD OB/NXT 271200Z SLP103

Hora: 23:31 (03:31 UTC)

Pronòstic

L'informe es va fer fa 9 hores i 37 minuts, a les 17:54 UTC
Pronòstic vàlid del 26 a les 17 UTC al 26 a les 21 UTC
Vent 10 kt del Sud-Oest
Visibilitat: 10 km
Cel cobert a una alçada de 3000 ft
Temporalment
l' 26 a les 17 UTC al 26 a les 21 UTC
Visibilitat: 8.0 km
Cel cobert a una alçada de 2000 ft
neu

TAF: CYZG 261754Z 2617/2621 23010KT P6SM OVC030 TEMPO 2617/2621 5SM -SN OVC020 RMK NXT FCST WILL BE ISSUED AT 271345Z

Observacions i pronòstics meteorològics de més de 4000 aeroports (METAR i TAF).

Les estacions disponibles són els punts grocs i vermells al mapa.

Posi el ratolí al punt desitjat per veure el nom de l'estació.

Feu clic per veure les observacions i els pronòstics meteorològics.

Per canviar el mapa: feu clic els botons verds amb una creu de color negre per apropar; al botó verd amb un guió per allunyar la imatge; o en les fletxes verdes per a mapes adjacents.


METAR-TAF: